createdAt,value
2018-04-06T00:00:41.182Z,0.00
2018-04-06T00:01:41.165Z,0.00
2018-04-06T00:02:41.145Z,0.00
2018-04-06T00:03:41.135Z,0.00
2018-04-06T00:04:41.145Z,0.00
2018-04-06T00:05:41.093Z,0.00
2018-04-06T00:06:41.067Z,0.00
2018-04-06T00:07:41.051Z,0.00
2018-04-06T00:08:41.006Z,0.00
2018-04-06T00:09:40.980Z,0.00
2018-04-06T00:10:40.971Z,0.00
2018-04-06T00:11:40.969Z,0.00
2018-04-06T00:12:40.945Z,0.00
2018-04-06T00:13:40.906Z,0.00
2018-04-06T00:14:40.880Z,0.00
2018-04-06T00:15:40.871Z,0.00
2018-04-06T00:16:40.849Z,0.00
2018-04-06T00:17:40.871Z,0.00
2018-04-06T00:18:40.826Z,0.00
2018-04-06T00:19:40.765Z,0.00
2018-04-06T00:20:40.800Z,0.00
2018-04-06T00:21:40.750Z,0.00
2018-04-06T00:22:40.718Z,0.00
2018-04-06T00:23:40.691Z,0.00
2018-04-06T00:24:40.678Z,0.00
2018-04-06T00:25:40.674Z,0.00
2018-04-06T00:26:40.626Z,0.00
2018-04-06T00:27:40.622Z,0.00
2018-04-06T00:28:40.582Z,0.00
2018-04-06T00:29:40.569Z,0.00
2018-04-06T00:30:40.575Z,0.00
2018-04-06T00:31:40.569Z,0.00
2018-04-06T00:32:40.540Z,0.00
2018-04-06T00:33:40.476Z,0.00
2018-04-06T00:34:40.482Z,0.00
2018-04-06T00:35:40.441Z,0.00
2018-04-06T00:36:40.441Z,0.00
2018-04-06T00:37:40.396Z,0.00
2018-04-06T00:38:40.373Z,0.00
2018-04-06T00:39:40.370Z,0.00
2018-04-06T00:40:40.354Z,0.00
2018-04-06T00:41:40.331Z,0.00
2018-04-06T00:42:40.309Z,0.00
2018-04-06T00:43:40.315Z,0.00
2018-04-06T00:44:40.248Z,0.00
2018-04-06T00:45:40.229Z,0.00
2018-04-06T00:46:40.238Z,0.00
2018-04-06T00:47:40.194Z,0.00
2018-04-06T00:48:40.181Z,0.00
2018-04-06T00:49:40.190Z,0.00
2018-04-06T00:50:40.135Z,0.00
2018-04-06T00:51:40.114Z,0.00
2018-04-06T00:52:40.075Z,0.00
2018-04-06T00:53:40.103Z,0.00
2018-04-06T00:54:40.074Z,0.00
2018-04-06T00:55:40.043Z,0.00
2018-04-06T00:56:39.992Z,0.00
2018-04-06T00:57:40.002Z,0.00
2018-04-06T00:58:39.960Z,0.00
2018-04-06T00:59:39.957Z,0.00
2018-04-06T01:00:39.931Z,0.00
2018-04-06T01:01:39.884Z,0.00
2018-04-06T01:02:39.865Z,0.00
2018-04-06T01:03:39.849Z,0.00
2018-04-06T01:04:39.852Z,0.00
2018-04-06T01:05:39.833Z,0.00
2018-04-06T01:06:39.794Z,0.00
2018-04-06T01:07:39.763Z,0.00
2018-04-06T01:08:39.760Z,0.00
2018-04-06T01:09:39.709Z,0.00
2018-04-06T01:10:39.699Z,0.00
2018-04-06T01:11:39.715Z,0.00
2018-04-06T01:12:39.677Z,0.00
2018-04-06T01:13:39.648Z,0.00
2018-04-06T01:14:39.616Z,0.00
2018-04-06T01:15:39.587Z,0.00
2018-04-06T01:16:39.594Z,0.00
2018-04-06T01:17:39.552Z,0.00
2018-04-06T01:18:39.543Z,0.00
2018-04-06T01:19:39.529Z,0.00
2018-04-06T01:20:39.476Z,0.00
2018-04-06T01:21:39.492Z,0.00
2018-04-06T01:22:39.456Z,0.00
2018-04-06T01:23:39.432Z,0.00
2018-04-06T01:24:39.395Z,0.00
2018-04-06T01:25:39.399Z,0.00
2018-04-06T01:26:39.398Z,0.00
2018-04-06T01:27:39.335Z,0.00
2018-04-06T01:28:39.322Z,0.00
2018-04-06T01:29:39.341Z,0.00
2018-04-06T01:30:39.280Z,0.00
2018-04-06T01:31:39.281Z,0.00
2018-04-06T01:32:39.227Z,0.00
2018-04-06T01:33:39.259Z,0.00
2018-04-06T01:34:39.211Z,0.00
2018-04-06T01:35:39.188Z,0.00
2018-04-06T01:36:39.230Z,0.00
2018-04-06T01:37:39.123Z,0.00
2018-04-06T01:38:39.124Z,0.00
2018-04-06T01:39:39.092Z,0.00
2018-04-06T01:40:39.089Z,0.00
2018-04-06T01:41:39.036Z,0.00
2018-04-06T01:42:39.055Z,0.00
2018-04-06T01:43:39.068Z,0.00
2018-04-06T01:44:39.055Z,0.00
2018-04-06T01:45:39.004Z,0.00
2018-04-06T01:46:38.940Z,0.00
2018-04-06T01:47:38.903Z,0.00
2018-04-06T01:48:38.891Z,0.00
2018-04-06T01:49:38.858Z,0.00
2018-04-06T01:50:38.872Z,0.00
2018-04-06T01:51:38.853Z,0.00
2018-04-06T01:52:38.846Z,0.00
2018-04-06T01:53:38.806Z,0.00
2018-04-06T01:54:38.798Z,0.00
2018-04-06T01:55:38.781Z,0.00
2018-04-06T01:56:38.721Z,0.00
2018-04-06T01:57:38.746Z,0.00
2018-04-06T01:58:38.674Z,0.00
2018-04-06T01:59:38.657Z,0.00
2018-04-06T02:00:38.673Z,0.00
2018-04-06T02:01:38.616Z,0.00
2018-04-06T02:02:38.623Z,0.00
2018-04-06T02:03:38.597Z,0.00
2018-04-06T02:04:38.543Z,0.00
2018-04-06T02:05:38.521Z,0.00
2018-04-06T02:06:38.497Z,0.00
2018-04-06T02:07:38.481Z,0.00
2018-04-06T02:08:38.452Z,0.00
2018-04-06T02:09:38.429Z,0.00
2018-04-06T02:10:38.439Z,0.00
2018-04-06T02:11:38.414Z,0.00
2018-04-06T02:12:38.388Z,0.00
2018-04-06T02:13:38.343Z,0.00
2018-04-06T02:14:41.344Z,0.00
2018-04-06T02:15:38.307Z,0.00
2018-04-06T02:16:38.310Z,0.00
2018-04-06T02:17:38.294Z,0.00
2018-04-06T02:18:38.250Z,0.00
2018-04-06T02:19:38.243Z,0.00
2018-04-06T02:20:38.227Z,0.00
2018-04-06T02:21:38.214Z,0.00
2018-04-06T02:22:38.159Z,0.00
2018-04-06T02:23:38.166Z,0.00
2018-04-06T02:24:38.224Z,0.00
2018-04-06T02:25:38.128Z,0.00
2018-04-06T02:26:38.115Z,0.00
2018-04-06T02:27:38.051Z,0.00
2018-04-06T02:28:38.029Z,0.00
2018-04-06T02:29:38.029Z,0.00
2018-04-06T02:30:38.000Z,0.00
2018-04-06T02:31:37.972Z,0.00
2018-04-06T02:32:37.940Z,0.00
2018-04-06T02:33:37.969Z,0.00
2018-04-06T02:34:37.930Z,0.00
2018-04-06T02:35:37.898Z,0.00
2018-04-06T02:36:37.849Z,0.00
2018-04-06T02:37:37.830Z,0.00
2018-04-06T02:38:37.827Z,0.00
2018-04-06T02:39:37.792Z,0.00
2018-04-06T02:40:37.848Z,0.00
2018-04-06T02:41:37.759Z,0.00
2018-04-06T02:42:37.796Z,0.00
2018-04-06T02:43:37.776Z,0.00
2018-04-06T02:44:37.736Z,0.00
2018-04-06T02:45:37.672Z,0.00
2018-04-06T02:46:37.639Z,0.00
2018-04-06T02:47:37.609Z,0.00
2018-04-06T02:48:37.599Z,0.00
2018-04-06T02:49:37.581Z,0.00
2018-04-06T02:50:37.604Z,0.00
2018-04-06T02:51:37.578Z,0.00
2018-04-06T02:52:37.558Z,0.00
2018-04-06T02:53:37.516Z,0.00
2018-04-06T02:54:37.501Z,0.00
2018-04-06T02:55:37.454Z,0.00
2018-04-06T02:56:37.443Z,0.00
2018-04-06T02:57:37.441Z,0.00
2018-04-06T02:58:37.392Z,0.00
2018-04-06T02:59:37.399Z,0.00
2018-04-06T03:00:37.390Z,0.00
2018-04-06T03:01:37.337Z,0.00
2018-04-06T03:02:37.297Z,0.00
2018-04-06T03:03:37.351Z,0.00
2018-04-06T03:04:37.271Z,0.00
2018-04-06T03:05:37.277Z,0.00
2018-04-06T03:06:37.233Z,0.00
2018-04-06T03:07:37.214Z,0.00
2018-04-06T03:08:37.175Z,0.00
2018-04-06T03:09:37.198Z,0.00
2018-04-06T03:10:37.158Z,0.00
2018-04-06T03:11:37.130Z,0.00
2018-04-06T03:12:37.102Z,0.00
2018-04-06T03:13:37.096Z,0.00
2018-04-06T03:14:37.063Z,0.00
2018-04-06T03:15:37.041Z,0.00
2018-04-06T03:16:37.016Z,0.00
2018-04-06T03:17:37.019Z,0.00
2018-04-06T03:18:36.984Z,0.00
2018-04-06T03:19:37.007Z,0.00
2018-04-06T03:20:36.958Z,0.00
2018-04-06T03:21:37.019Z,0.00
2018-04-06T03:22:36.895Z,0.00
2018-04-06T03:23:36.907Z,0.00
2018-04-06T03:24:36.866Z,0.00
2018-04-06T03:25:36.876Z,0.00
2018-04-06T03:26:36.831Z,0.00
2018-04-06T03:27:36.793Z,0.00
2018-04-06T03:28:36.806Z,0.00
2018-04-06T03:29:36.774Z,0.00
2018-04-06T03:30:36.732Z,0.00
2018-04-06T03:31:36.676Z,0.00
2018-04-06T03:32:36.687Z,0.00
2018-04-06T03:33:36.662Z,0.00
2018-04-06T03:34:36.631Z,0.00
2018-04-06T03:35:36.646Z,0.00
2018-04-06T03:36:36.574Z,0.00
2018-04-06T03:37:36.627Z,0.00
2018-04-06T03:38:36.617Z,0.00
2018-04-06T03:39:36.605Z,0.00
2018-04-06T03:40:36.533Z,0.00
2018-04-06T03:41:36.573Z,0.00
2018-04-06T03:42:36.465Z,0.00
2018-04-06T03:43:36.456Z,0.00
2018-04-06T03:44:36.421Z,0.00
2018-04-06T03:45:36.421Z,0.00
2018-04-06T03:46:36.350Z,0.00
2018-04-06T03:47:36.405Z,0.00
2018-04-06T03:48:36.344Z,0.00
2018-04-06T03:49:36.357Z,0.00
2018-04-06T03:50:36.316Z,0.00
2018-04-06T03:51:36.287Z,0.00
2018-04-06T03:52:36.318Z,0.00
2018-04-06T03:53:36.234Z,0.00
2018-04-06T03:54:36.212Z,0.00
2018-04-06T03:55:36.287Z,0.00
2018-04-06T03:56:36.204Z,0.00
2018-04-06T03:57:36.176Z,0.00
2018-04-06T03:58:36.176Z,0.00
2018-04-06T03:59:36.101Z,0.00
2018-04-06T04:00:36.118Z,0.00
2018-04-06T04:01:36.027Z,0.00
2018-04-06T04:02:36.063Z,0.00
2018-04-06T04:03:36.034Z,0.00
2018-04-06T04:04:35.981Z,0.00
2018-04-06T04:05:35.992Z,0.00
2018-04-06T04:06:35.967Z,0.00
2018-04-06T04:07:36.136Z,0.00
2018-04-06T04:08:35.945Z,0.00
2018-04-06T04:09:35.916Z,0.00
2018-04-06T04:10:35.857Z,0.00
2018-04-06T04:11:35.882Z,0.00
2018-04-06T04:12:35.860Z,0.00
2018-04-06T04:14:57.184Z,0.00
2018-04-06T04:15:57.124Z,0.00
2018-04-06T04:16:57.196Z,0.00
2018-04-06T04:17:57.095Z,0.00
2018-04-06T04:18:57.146Z,0.00
2018-04-06T04:19:57.123Z,4.00
2018-04-06T04:20:56.982Z,0.00
2018-04-06T04:21:56.783Z,0.00
2018-04-06T04:22:56.767Z,4.00
2018-04-06T04:23:56.986Z,0.00
2018-04-06T04:24:56.983Z,4.00
2018-04-06T04:25:56.594Z,8.00
2018-04-06T04:26:56.500Z,4.00
2018-04-06T04:27:56.477Z,4.00
2018-04-06T04:28:56.475Z,8.00
2018-04-06T04:29:56.449Z,8.00
2018-04-06T04:30:56.426Z,12.00
2018-04-06T04:31:56.398Z,12.00
2018-04-06T04:32:56.381Z,16.00
2018-04-06T04:33:56.350Z,16.00
2018-04-06T04:34:56.321Z,20.00
2018-04-06T04:35:56.312Z,28.00
2018-04-06T04:36:56.312Z,32.00
2018-04-06T04:38:05.340Z,32.00
2018-04-06T04:39:50.167Z,48.00
2018-04-06T04:40:49.650Z,56.00
2018-04-06T04:41:49.997Z,64.00
2018-04-06T04:42:49.962Z,72.00
2018-04-06T04:43:49.529Z,84.00
2018-04-06T04:44:49.486Z,92.00
2018-04-06T04:45:49.479Z,108.00
2018-04-06T04:46:49.444Z,120.00
2018-04-06T04:47:49.437Z,132.00
2018-04-06T04:48:49.405Z,148.00
2018-04-06T04:49:49.397Z,164.00
2018-04-06T04:50:49.377Z,188.00
2018-04-06T04:51:49.348Z,204.00
2018-04-06T04:52:49.336Z,228.00
2018-04-06T04:53:49.293Z,248.00
2018-04-06T04:54:49.307Z,268.00
2018-04-06T04:55:49.269Z,296.00
2018-04-06T04:56:49.246Z,316.00
2018-04-06T04:57:49.217Z,340.00
2018-04-06T04:58:49.205Z,364.00
2018-04-06T04:59:49.160Z,388.00
2018-04-06T05:00:49.150Z,420.00
2018-04-06T05:01:49.150Z,448.00
2018-04-06T05:02:49.105Z,476.00
2018-04-06T05:03:49.077Z,512.00
2018-04-06T05:04:49.067Z,548.00
2018-04-06T05:05:49.029Z,580.00
2018-04-06T05:06:49.006Z,616.00
2018-04-06T05:07:48.987Z,648.00
2018-04-06T05:08:48.980Z,684.00
2018-04-06T05:09:48.951Z,724.00
2018-04-06T05:10:48.933Z,760.00
2018-04-06T05:11:48.933Z,796.00
2018-04-06T05:12:48.885Z,832.00
2018-04-06T05:13:48.877Z,868.00
2018-04-06T05:14:48.848Z,916.00
2018-04-06T05:15:48.863Z,964.00
2018-04-06T05:16:48.802Z,1008.00
2018-04-06T05:17:48.780Z,1048.00
2018-04-06T05:18:48.757Z,1080.00
2018-04-06T05:19:48.755Z,1112.00
2018-04-06T05:20:48.713Z,1156.00
2018-04-06T05:21:48.713Z,1196.00
2018-04-06T05:22:48.710Z,1240.00
2018-04-06T05:23:48.673Z,1280.00
2018-04-06T05:24:48.650Z,1328.00
2018-04-06T05:25:48.598Z,1376.00
2018-04-06T05:26:48.576Z,1416.00
2018-04-06T05:27:48.579Z,1456.00
2018-04-06T05:28:48.553Z,1496.00
2018-04-06T05:29:48.547Z,1540.00
2018-04-06T05:30:48.501Z,1580.00
2018-04-06T05:31:48.475Z,1628.00
2018-04-06T05:32:48.491Z,1676.00
2018-04-06T05:33:48.430Z,1724.00
2018-04-06T05:34:48.405Z,1784.00
2018-04-06T05:35:48.448Z,1840.00
2018-04-06T05:36:48.370Z,1896.00
2018-04-06T05:37:48.349Z,1948.00
2018-04-06T05:38:48.390Z,1992.00
2018-04-06T05:39:48.307Z,2040.00
2018-04-06T05:40:48.285Z,2084.00
2018-04-06T05:41:48.288Z,2132.00
2018-04-06T05:42:57.316Z,2176.00
2018-04-06T05:44:41.948Z,2260.00
2018-04-06T05:45:41.877Z,2300.00
2018-04-06T05:46:41.644Z,2340.00
2018-04-06T05:47:41.628Z,2384.00
2018-04-06T05:48:41.922Z,2420.00
2018-04-06T05:49:41.907Z,2460.00
2018-04-06T05:50:41.795Z,2500.00
2018-04-06T05:51:41.489Z,2544.00
2018-04-06T05:52:41.434Z,2576.00
2018-04-06T05:53:41.431Z,2612.00
2018-04-06T05:54:41.376Z,2636.00
2018-04-06T05:55:41.354Z,2648.00
2018-04-06T05:56:41.335Z,2664.00
2018-04-06T05:57:41.331Z,2700.00
2018-04-06T05:58:41.306Z,2740.00
2018-04-06T05:59:41.280Z,2792.00
2018-04-06T06:00:41.256Z,2840.00
2018-04-06T06:01:41.259Z,2888.00
2018-04-06T06:02:41.225Z,2932.00
2018-04-06T06:03:41.176Z,2964.00
2018-04-06T06:04:41.164Z,3004.00
2018-04-06T06:05:41.183Z,3048.00
2018-04-06T06:06:41.125Z,3080.00
2018-04-06T06:07:41.094Z,3100.00
2018-04-06T06:08:41.123Z,3120.00
2018-04-06T06:09:41.094Z,3144.00
2018-04-06T06:10:41.069Z,3192.00
2018-04-06T06:11:41.037Z,3244.00
2018-04-06T06:12:40.985Z,3292.00
2018-04-06T06:13:40.986Z,3356.00
2018-04-06T06:14:40.986Z,3408.00
2018-04-06T06:15:40.927Z,3464.00
2018-04-06T06:16:40.924Z,3528.00
2018-04-06T06:17:40.889Z,3592.00
2018-04-06T06:18:40.866Z,3640.00
2018-04-06T06:19:40.869Z,3688.00
2018-04-06T06:20:40.862Z,3740.00
2018-04-06T06:21:40.882Z,3780.00
2018-04-06T06:22:40.810Z,3792.00
2018-04-06T06:23:40.783Z,3792.00
2018-04-06T06:24:40.735Z,3784.00
2018-04-06T06:25:40.759Z,3764.00
2018-04-06T06:26:40.703Z,3720.00
2018-04-06T06:27:40.676Z,3660.00
2018-04-06T06:28:40.677Z,3572.00
2018-04-06T06:29:40.673Z,3472.00
2018-04-06T06:30:40.644Z,3360.00
2018-04-06T06:31:40.586Z,3260.00
2018-04-06T06:32:40.583Z,3184.00
2018-04-06T06:33:40.577Z,3096.00
2018-04-06T06:34:40.537Z,3028.00
2018-04-06T06:35:40.528Z,2988.00
2018-04-06T06:36:40.524Z,2972.00
2018-04-06T06:37:40.481Z,2960.00
2018-04-06T06:38:40.458Z,2972.00
2018-04-06T06:39:40.493Z,2984.00
2018-04-06T06:40:40.404Z,3004.00
2018-04-06T06:41:40.416Z,3032.00
2018-04-06T06:42:40.394Z,3088.00
2018-04-06T06:43:40.357Z,3108.00
2018-04-06T06:44:40.339Z,3128.00
2018-04-06T06:45:40.330Z,3152.00
2018-04-06T06:46:40.311Z,3172.00
2018-04-06T06:47:40.276Z,3212.00
2018-04-06T06:48:40.259Z,3264.00
2018-04-06T06:49:40.228Z,3316.00
2018-04-06T06:50:40.240Z,3344.00
2018-04-06T06:51:40.195Z,3364.00
2018-04-06T06:52:40.173Z,3388.00
2018-04-06T06:53:40.178Z,3404.00
2018-04-06T06:54:40.135Z,3420.00
2018-04-06T06:55:40.116Z,3440.00
2018-04-06T06:56:40.086Z,3456.00
2018-04-06T06:57:40.104Z,3476.00
2018-04-06T06:58:40.038Z,3484.00
2018-04-06T06:59:40.019Z,3496.00
2018-04-06T07:00:40.013Z,3484.00
2018-04-06T07:01:39.980Z,3480.00
2018-04-06T07:02:39.958Z,3472.00
2018-04-06T07:03:39.962Z,3464.00
2018-04-06T07:04:39.948Z,3460.00
2018-04-06T07:05:39.901Z,3452.00
2018-04-06T07:06:39.879Z,3448.00
2018-04-06T07:07:39.859Z,3448.00
2018-04-06T07:08:39.832Z,3444.00
2018-04-06T07:09:39.825Z,3444.00
2018-04-06T07:10:39.803Z,3456.00
2018-04-06T07:11:39.777Z,3456.00
2018-04-06T07:12:39.760Z,3480.00
2018-04-06T07:13:39.771Z,3496.00
2018-04-06T07:14:39.774Z,3504.00
2018-04-06T07:15:39.733Z,3532.00
2018-04-06T07:16:39.679Z,3556.00
2018-04-06T07:17:39.663Z,3572.00
2018-04-06T07:18:39.675Z,3592.00
2018-04-06T07:19:39.618Z,3620.00
2018-04-06T07:20:39.594Z,3640.00
2018-04-06T07:21:39.570Z,3660.00
2018-04-06T07:22:39.586Z,3668.00
2018-04-06T07:23:39.534Z,3684.00
2018-04-06T07:24:39.538Z,3720.00
2018-04-06T07:25:39.539Z,3740.00
2018-04-06T07:26:39.477Z,3764.00
2018-04-06T07:27:39.465Z,3776.00
2018-04-06T07:28:39.468Z,3800.00
2018-04-06T07:29:39.439Z,3844.00
2018-04-06T07:30:39.391Z,3860.00
2018-04-06T07:31:39.384Z,3856.00
2018-04-06T07:32:39.361Z,3864.00
2018-04-06T07:33:39.365Z,3908.00
2018-04-06T07:34:39.309Z,3928.00
2018-04-06T07:35:48.430Z,3956.00
2018-04-06T07:37:43.186Z,3984.00
2018-04-06T07:38:32.822Z,4000.00
2018-04-06T07:39:33.002Z,4032.00
2018-04-06T07:40:32.777Z,4064.00
2018-04-06T07:41:32.708Z,4096.00
2018-04-06T07:42:32.645Z,4104.00
2018-04-06T07:43:32.960Z,4112.00
2018-04-06T07:44:32.503Z,4148.00
2018-04-06T07:45:32.472Z,4172.00
2018-04-06T07:46:32.494Z,4160.00
2018-04-06T07:47:32.456Z,4184.00
2018-04-06T07:48:32.437Z,4184.00
2018-04-06T07:49:32.392Z,4196.00
2018-04-06T07:50:32.423Z,4208.00
2018-04-06T07:51:32.359Z,4232.00
2018-04-06T07:52:32.345Z,4260.00
2018-04-06T07:53:32.341Z,4276.00
2018-04-06T07:54:32.315Z,4288.00
2018-04-06T07:55:32.286Z,4304.00
2018-04-06T07:56:32.257Z,4312.00
2018-04-06T07:57:32.248Z,4340.00
2018-04-06T07:58:32.249Z,4368.00
2018-04-06T07:59:32.207Z,4400.00
2018-04-06T08:00:32.188Z,4440.00
2018-04-06T08:01:32.172Z,4444.00
2018-04-06T08:02:32.145Z,4428.00
2018-04-06T08:03:32.127Z,4468.00
2018-04-06T08:04:32.105Z,4476.00
2018-04-06T08:05:32.121Z,4476.00
2018-04-06T08:06:32.097Z,4484.00
2018-04-06T08:07:32.048Z,4516.00
2018-04-06T08:08:32.022Z,4528.00
2018-04-06T08:09:32.006Z,4536.00
2018-04-06T08:10:32.000Z,4544.00
2018-04-06T08:11:31.960Z,4548.00
2018-04-06T08:12:31.939Z,4564.00
2018-04-06T08:13:31.933Z,4588.00
2018-04-06T08:14:31.930Z,4608.00
2018-04-06T08:15:31.882Z,4624.00
2018-04-06T08:16:31.885Z,4672.00
2018-04-06T08:17:31.856Z,4704.00
2018-04-06T08:18:31.856Z,4732.00
2018-04-06T08:19:31.805Z,4788.00
2018-04-06T08:20:31.837Z,4804.00
2018-04-06T08:21:31.796Z,4844.00
2018-04-06T08:22:31.776Z,4880.00
2018-04-06T08:23:31.735Z,4928.00
2018-04-06T08:24:31.731Z,4996.00
2018-04-06T08:25:31.705Z,5008.00
2018-04-06T08:26:31.682Z,4980.00
2018-04-06T08:27:31.666Z,5016.00
2018-04-06T08:28:31.666Z,5060.00
2018-04-06T08:29:31.633Z,5084.00
2018-04-06T08:30:31.599Z,5128.00
2018-04-06T08:31:31.606Z,5148.00
2018-04-06T08:32:31.592Z,5172.00
2018-04-06T08:33:31.574Z,5208.00
2018-04-06T08:34:31.532Z,5236.00
2018-04-06T08:35:31.511Z,5292.00
2018-04-06T08:36:31.484Z,5324.00
2018-04-06T08:37:31.477Z,5336.00
2018-04-06T08:38:31.477Z,5396.00
2018-04-06T08:39:31.465Z,5448.00
2018-04-06T08:40:31.443Z,5512.00
2018-04-06T08:41:31.425Z,5560.00
2018-04-06T08:42:31.380Z,5736.00
2018-04-06T08:43:31.366Z,5996.00
2018-04-06T08:44:31.373Z,5912.00
2018-04-06T08:45:31.322Z,5968.00
2018-04-06T08:46:31.328Z,5952.00
2018-04-06T08:47:31.283Z,5952.00
2018-04-06T08:48:31.270Z,6136.00
2018-04-06T08:49:31.277Z,6424.00
2018-04-06T08:50:31.241Z,6704.00
2018-04-06T08:51:31.241Z,8060.00
2018-04-06T08:52:31.206Z,14236.00
2018-04-06T08:53:31.180Z,26464.00
2018-04-06T08:54:31.186Z,48416.00
2018-04-06T08:55:31.144Z,44384.00
2018-04-06T08:56:31.185Z,40768.00
2018-04-06T08:57:31.113Z,58144.00
2018-04-06T08:58:31.153Z,44992.00
2018-04-06T08:59:31.086Z,38400.00
2018-04-06T09:00:31.206Z,44096.00
2018-04-06T09:01:31.048Z,65184.00
2018-04-06T09:02:31.048Z,76448.00
2018-04-06T09:03:31.023Z,83840.00
2018-04-06T09:04:31.010Z,87968.00
2018-04-06T09:05:30.977Z,88576.00
2018-04-06T09:06:30.984Z,89440.00
2018-04-06T09:07:30.990Z,90048.00
2018-04-06T09:08:30.942Z,89312.00
2018-04-06T09:09:30.970Z,87680.00
2018-04-06T09:10:30.920Z,84992.00
2018-04-06T09:11:30.933Z,80064.00
2018-04-06T09:12:30.900Z,57184.00
2018-04-06T09:13:30.881Z,36736.00
2018-04-06T09:14:30.904Z,40128.00
2018-04-06T09:15:30.865Z,55168.00
2018-04-06T09:16:30.888Z,56672.00
2018-04-06T09:17:30.854Z,39520.00
2018-04-06T09:18:30.839Z,44128.00
2018-04-06T09:19:30.856Z,55264.00
2018-04-06T09:20:30.834Z,52992.00
2018-04-06T09:21:30.837Z,39648.00
2018-04-06T09:22:30.837Z,47392.00
2018-04-06T09:23:30.805Z,36416.00
2018-04-06T09:24:30.833Z,23840.00
2018-04-06T09:25:30.795Z,20256.00
2018-04-06T09:26:30.809Z,16808.00
2018-04-06T09:27:30.788Z,33856.00
2018-04-06T09:28:30.785Z,57408.00
2018-04-06T09:29:30.773Z,64224.00
2018-04-06T09:30:30.795Z,65600.00
2018-04-06T09:31:30.769Z,66656.00
2018-04-06T09:32:30.762Z,66976.00
2018-04-06T09:33:30.744Z,48096.00
2018-04-06T09:34:30.834Z,32768.00
2018-04-06T09:35:30.745Z,35168.00
2018-04-06T09:36:30.740Z,54848.00
2018-04-06T09:37:30.718Z,67104.00
2018-04-06T09:38:30.716Z,54528.00
2018-04-06T09:39:30.735Z,47520.00
2018-04-06T09:40:30.721Z,60640.00
2018-04-06T09:41:30.706Z,68384.00
2018-04-06T09:42:30.718Z,64000.00
2018-04-06T09:43:30.713Z,60576.00
2018-04-06T09:44:30.689Z,53120.00
2018-04-06T09:45:30.688Z,49248.00
2018-04-06T09:46:30.676Z,50144.00
2018-04-06T09:47:30.687Z,58432.00
2018-04-06T09:48:30.664Z,57632.00
2018-04-06T09:49:30.787Z,48128.00
2018-04-06T09:50:30.654Z,41440.00
2018-04-06T09:51:30.673Z,34272.00
2018-04-06T09:52:30.657Z,25888.00
2018-04-06T09:53:30.638Z,20352.00
2018-04-06T09:54:30.657Z,47264.00
2018-04-06T09:55:30.635Z,64224.00
2018-04-06T09:56:30.628Z,62784.00
2018-04-06T09:57:30.634Z,59456.00
2018-04-06T09:58:30.627Z,59264.00
2018-04-06T09:59:30.648Z,59168.00
2018-04-06T10:00:30.619Z,42912.00
2018-04-06T10:01:30.625Z,41312.00
2018-04-06T10:02:30.632Z,56864.00
2018-04-06T10:03:30.606Z,62912.00
2018-04-06T10:04:30.612Z,64096.00
2018-04-06T10:05:30.612Z,64096.00
2018-04-06T10:06:30.593Z,69664.00
2018-04-06T10:07:30.615Z,67872.00
2018-04-06T10:08:30.590Z,39296.00
2018-04-06T10:09:30.609Z,33184.00
2018-04-06T10:10:30.584Z,53024.00
2018-04-06T10:11:30.581Z,66976.00
2018-04-06T10:12:30.568Z,80896.00
2018-04-06T10:13:30.574Z,84352.00
2018-04-06T10:14:30.574Z,74816.00
2018-04-06T10:15:30.616Z,64224.00
2018-04-06T10:16:30.568Z,58656.00
2018-04-06T10:17:30.555Z,62752.00
2018-04-06T10:18:30.562Z,75232.00
2018-04-06T10:19:30.565Z,93472.00
2018-04-06T10:20:30.568Z,93888.00
2018-04-06T10:21:30.562Z,80704.00
2018-04-06T10:22:30.564Z,70688.00
2018-04-06T10:23:30.571Z,67456.00
2018-04-06T10:24:30.561Z,60224.00
2018-04-06T10:25:30.552Z,44608.00
2018-04-06T10:26:30.549Z,38080.00
2018-04-06T10:27:30.552Z,39456.00
2018-04-06T10:28:30.542Z,48736.00
2018-04-06T10:29:30.564Z,64992.00
2018-04-06T10:30:30.546Z,76864.00
2018-04-06T10:31:30.540Z,82880.00
2018-04-06T10:32:30.544Z,88864.00
2018-04-06T10:33:30.543Z,83776.00
2018-04-06T10:34:30.574Z,67552.00
2018-04-06T10:35:30.560Z,62592.00
2018-04-06T10:36:30.572Z,70336.00
2018-04-06T10:37:30.536Z,80288.00
2018-04-06T10:38:30.537Z,86528.00
2018-04-06T10:39:30.535Z,92128.00
2018-04-06T10:40:30.568Z,94400.00
2018-04-06T10:41:30.536Z,89152.00
2018-04-06T10:42:30.539Z,79936.00
2018-04-06T10:43:30.574Z,76128.00
2018-04-06T10:44:30.529Z,79488.00
2018-04-06T10:45:30.545Z,90496.00
2018-04-06T10:46:30.533Z,101632.00
2018-04-06T10:47:30.551Z,104800.00
2018-04-06T10:48:30.539Z,98816.00
2018-04-06T10:49:30.571Z,93824.00
2018-04-06T10:50:30.542Z,87456.00
2018-04-06T10:51:30.555Z,82816.00
2018-04-06T10:52:30.540Z,90272.00
2018-04-06T10:53:32.039Z,99968.00
2018-04-06T10:54:30.545Z,105792.00
2018-04-06T10:55:30.556Z,100416.00
2018-04-06T10:56:30.558Z,97600.00
2018-04-06T10:57:30.560Z,95712.00
2018-04-06T10:58:30.561Z,98080.00
2018-04-06T10:59:30.562Z,101344.00
2018-04-06T11:00:30.591Z,104864.00
2018-04-06T11:01:30.560Z,106944.00
2018-04-06T11:02:30.551Z,107104.00
2018-04-06T11:03:30.555Z,106816.00
2018-04-06T11:04:30.570Z,105088.00
2018-04-06T11:05:30.594Z,102656.00
2018-04-06T11:06:30.560Z,98432.00
2018-04-06T11:07:30.567Z,91200.00
2018-04-06T11:08:30.591Z,81024.00
2018-04-06T11:09:30.566Z,92000.00
2018-04-06T11:10:30.571Z,113440.00
2018-04-06T11:11:30.568Z,111072.00
2018-04-06T11:12:30.593Z,105984.00
2018-04-06T11:13:30.588Z,102816.00
2018-04-06T11:14:30.606Z,101760.00
2018-04-06T11:15:30.606Z,104448.00
2018-04-06T11:16:30.587Z,107456.00
2018-04-06T11:17:30.584Z,107488.00
2018-04-06T11:18:30.603Z,104480.00
2018-04-06T11:19:30.600Z,104256.00
2018-04-06T11:20:30.590Z,106336.00
2018-04-06T11:21:30.587Z,105792.00
2018-04-06T11:22:30.627Z,108032.00
2018-04-06T11:23:30.612Z,110176.00
2018-04-06T11:24:30.589Z,109568.00
2018-04-06T11:25:30.594Z,107776.00
2018-04-06T11:26:30.613Z,108000.00
2018-04-06T11:27:30.603Z,108096.00
2018-04-06T11:28:30.605Z,109760.00
2018-04-06T11:29:30.597Z,112992.00
2018-04-06T11:30:30.639Z,116416.00
2018-04-06T11:31:30.597Z,120384.00
2018-04-06T11:32:30.606Z,122176.00
2018-04-06T11:33:30.616Z,121952.00
2018-04-06T11:34:30.606Z,121504.00
2018-04-06T11:35:30.622Z,118720.00
2018-04-06T11:36:30.616Z,114272.00
2018-04-06T11:37:30.612Z,113312.00
2018-04-06T11:38:30.644Z,114464.00
2018-04-06T11:39:30.626Z,118144.00
2018-04-06T11:40:30.630Z,122400.00
2018-04-06T11:41:30.634Z,126592.00
2018-04-06T11:42:30.645Z,130176.00
2018-04-06T11:43:30.656Z,131264.00
2018-04-06T11:44:30.625Z,126720.00
2018-04-06T11:45:30.651Z,117568.00
2018-04-06T11:46:30.635Z,116736.00
2018-04-06T11:47:30.667Z,120992.00
2018-04-06T11:48:30.654Z,122496.00
2018-04-06T11:49:30.654Z,123840.00
2018-04-06T11:50:30.657Z,125792.00
2018-04-06T11:51:30.667Z,125984.00
2018-04-06T11:52:30.664Z,125664.00
2018-04-06T11:53:30.713Z,125248.00
2018-04-06T11:54:30.681Z,126688.00
2018-04-06T11:55:30.725Z,129152.00
2018-04-06T11:56:30.680Z,128992.00
2018-04-06T11:57:30.678Z,125376.00
2018-04-06T11:58:30.709Z,120480.00
2018-04-06T11:59:30.687Z,119776.00
2018-04-06T12:00:30.680Z,120064.00
2018-04-06T12:01:30.696Z,120512.00
2018-04-06T12:02:30.699Z,124320.00
2018-04-06T12:03:30.706Z,124928.00
2018-04-06T12:04:30.839Z,122176.00
2018-04-06T12:05:30.701Z,123936.00
2018-04-06T12:06:30.709Z,128000.00
2018-04-06T12:07:30.712Z,128000.00
2018-04-06T12:08:30.719Z,127904.00
2018-04-06T12:09:30.732Z,128480.00
2018-04-06T12:10:30.727Z,130656.00
2018-04-06T12:11:30.725Z,132192.00
2018-04-06T12:12:30.728Z,153024.00
2018-04-06T12:13:30.760Z,178016.00
2018-04-06T12:14:30.728Z,138688.00
2018-04-06T12:15:30.767Z,65440.00
2018-04-06T12:16:30.747Z,32032.00
2018-04-06T12:17:30.750Z,28672.00
2018-04-06T12:18:30.747Z,27872.00
2018-04-06T12:19:30.764Z,27584.00
2018-04-06T12:20:30.764Z,27424.00
2018-04-06T12:21:30.763Z,27168.00
2018-04-06T12:22:30.766Z,26784.00
2018-04-06T12:23:30.776Z,26176.00
2018-04-06T12:24:30.774Z,25632.00
2018-04-06T12:25:30.770Z,25216.00
2018-04-06T12:26:30.776Z,25088.00
2018-04-06T12:27:30.803Z,24992.00